createdAt,value
2018-08-31T00:00:43.023Z,45.43
2018-08-31T00:04:54.992Z,45.15
2018-08-31T00:08:04.893Z,45.27
2018-08-31T00:11:14.090Z,45.51
2018-08-31T00:14:12.388Z,44.94
2018-08-31T00:17:11.385Z,45.66
2018-08-31T00:20:09.652Z,45.51
2018-08-31T00:23:08.746Z,45.02
2018-08-31T00:26:30.449Z,45.55
2018-08-31T00:30:10.780Z,44.99
2018-08-31T00:33:21.283Z,45.56
2018-08-31T00:36:31.389Z,45.01
2018-08-31T00:39:43.957Z,45.13
2018-08-31T00:43:11.270Z,45.36
2018-08-31T00:46:10.571Z,45.60
2018-08-31T00:49:08.805Z,45.62
2018-08-31T00:52:06.739Z,45.28
2018-08-31T00:55:05.912Z,45.12
2018-08-31T00:58:03.980Z,45.56
2018-08-31T01:01:02.081Z,45.58
2018-08-31T01:04:01.289Z,45.16
2018-08-31T01:07:00.599Z,45.24
2018-08-31T01:09:59.528Z,45.61
2018-08-31T01:12:58.684Z,45.04
2018-08-31T01:15:56.981Z,45.38
2018-08-31T01:18:55.992Z,45.62
2018-08-31T01:21:55.031Z,45.38
2018-08-31T01:24:53.205Z,45.69
2018-08-31T01:27:51.333Z,45.61
2018-08-31T01:30:50.445Z,45.67
2018-08-31T01:33:48.436Z,45.06
2018-08-31T01:36:47.774Z,45.37
2018-08-31T01:39:45.826Z,45.49
2018-08-31T01:42:45.258Z,45.60
2018-08-31T01:45:43.461Z,45.11
2018-08-31T01:48:41.522Z,44.93
2018-08-31T01:51:40.025Z,44.98
2018-08-31T01:54:38.834Z,45.21
2018-08-31T01:57:37.915Z,45.35
2018-08-31T02:00:36.962Z,45.23
2018-08-31T02:03:36.194Z,45.72
2018-08-31T02:06:34.277Z,45.47
2018-08-31T02:09:32.587Z,45.64
2018-08-31T02:12:30.882Z,45.41
2018-08-31T02:15:30.367Z,44.98
2018-08-31T02:18:28.437Z,45.00
2018-08-31T02:21:27.309Z,45.37
2018-08-31T02:24:26.278Z,44.94
2018-08-31T02:27:24.533Z,45.24
2018-08-31T02:30:22.362Z,45.12
2018-08-31T02:33:21.778Z,45.52
2018-08-31T02:36:20.676Z,45.37
2018-08-31T02:39:19.145Z,45.56
2018-08-31T02:42:18.054Z,45.13
2018-08-31T02:45:17.458Z,45.40
2018-08-31T02:48:16.456Z,45.04
2018-08-31T02:51:14.630Z,45.49
2018-08-31T02:54:13.647Z,45.06
2018-08-31T02:57:11.985Z,45.01
2018-08-31T03:00:10.828Z,45.60
2018-08-31T03:03:08.877Z,45.28
2018-08-31T03:06:07.082Z,45.18
2018-08-31T03:09:05.627Z,45.10
2018-08-31T03:12:03.531Z,45.62
2018-08-31T03:15:02.801Z,45.08
2018-08-31T03:18:01.830Z,45.10
2018-08-31T03:21:00.145Z,45.75
2018-08-31T03:23:59.641Z,45.21
2018-08-31T03:26:57.857Z,45.74
2018-08-31T03:29:56.765Z,45.75
2018-08-31T03:32:56.005Z,45.28
2018-08-31T03:35:53.954Z,45.79
2018-08-31T03:38:53.087Z,45.75
2018-08-31T03:41:52.181Z,45.73
2018-08-31T03:44:50.470Z,45.64
2018-08-31T03:47:49.142Z,45.73
2018-08-31T03:50:47.040Z,45.78
2018-08-31T03:53:45.865Z,45.49
2018-08-31T03:56:45.121Z,45.73
2018-08-31T03:59:44.293Z,45.50
2018-08-31T04:02:43.545Z,45.83
2018-08-31T04:05:42.797Z,45.29
2018-08-31T04:08:41.214Z,45.83
2018-08-31T04:11:39.284Z,45.52
2018-08-31T04:14:37.616Z,45.57
2018-08-31T04:17:36.668Z,45.91
2018-08-31T04:20:34.695Z,45.31
2018-08-31T04:23:33.831Z,45.87
2018-08-31T04:26:33.072Z,45.46
2018-08-31T04:29:31.013Z,45.60
2018-08-31T04:32:29.449Z,45.51
2018-08-31T04:35:27.814Z,45.96
2018-08-31T04:38:27.108Z,45.37
2018-08-31T04:41:26.115Z,46.05
2018-08-31T04:44:25.697Z,45.47
2018-08-31T04:47:24.804Z,45.49
2018-08-31T04:50:24.111Z,45.92
2018-08-31T04:53:22.996Z,45.46
2018-08-31T04:56:23.222Z,45.57
2018-08-31T04:59:22.116Z,45.22
2018-08-31T05:02:20.420Z,45.56
2018-08-31T05:05:19.460Z,45.41
2018-08-31T05:08:19.015Z,45.91
2018-08-31T05:11:17.908Z,45.89
2018-08-31T05:14:17.230Z,45.34
2018-08-31T05:17:16.618Z,46.03
2018-08-31T05:20:15.635Z,45.50
2018-08-31T05:23:14.877Z,45.41
2018-08-31T05:26:13.427Z,45.51
2018-08-31T05:29:12.375Z,45.99
2018-08-31T05:32:10.283Z,45.45
2018-08-31T05:35:09.292Z,45.86
2018-08-31T05:38:08.617Z,46.35
2018-08-31T05:41:06.470Z,45.66
2018-08-31T05:44:04.683Z,46.20
2018-08-31T05:47:02.721Z,46.07
2018-08-31T05:50:01.009Z,46.30
2018-08-31T05:52:59.783Z,46.40
2018-08-31T05:55:58.364Z,45.83
2018-08-31T05:58:56.467Z,46.10
2018-08-31T06:01:55.590Z,46.10
2018-08-31T06:04:53.626Z,46.25
2018-08-31T06:07:51.642Z,46.72
2018-08-31T06:10:49.704Z,46.73
2018-08-31T06:13:48.042Z,46.90
2018-08-31T06:16:46.134Z,46.99
2018-08-31T06:19:44.609Z,47.13
2018-08-31T06:22:43.194Z,46.58
2018-08-31T06:25:41.365Z,47.37
2018-08-31T06:28:39.386Z,47.42
2018-08-31T06:31:37.455Z,46.88
2018-08-31T06:34:35.468Z,47.40
2018-08-31T06:37:33.717Z,47.32
2018-08-31T06:40:31.769Z,46.55
2018-08-31T06:43:29.589Z,46.66
2018-08-31T06:46:27.512Z,47.18
2018-08-31T06:49:26.677Z,47.22
2018-08-31T06:52:24.928Z,47.21
2018-08-31T06:55:22.937Z,47.11
2018-08-31T06:58:20.901Z,46.86
2018-08-31T07:01:20.169Z,46.66
2018-08-31T07:04:19.713Z,46.47
2018-08-31T07:07:18.289Z,46.38
2018-08-31T07:10:16.554Z,46.41
2018-08-31T07:13:14.935Z,47.01
2018-08-31T07:16:13.899Z,46.60
2018-08-31T07:19:12.036Z,46.23
2018-08-31T07:22:09.842Z,46.24
2018-08-31T07:25:07.986Z,46.24
2018-08-31T07:28:06.132Z,46.71
2018-08-31T07:31:05.424Z,46.20
2018-08-31T07:34:03.309Z,46.45
2018-08-31T07:37:01.300Z,46.82
2018-08-31T07:40:00.311Z,46.35
2018-08-31T07:42:58.895Z,46.83
2018-08-31T07:45:57.574Z,46.18
2018-08-31T07:48:55.582Z,46.17
2018-08-31T07:51:53.677Z,46.13
2018-08-31T07:54:51.829Z,46.62
2018-08-31T07:57:49.600Z,46.82
2018-08-31T08:00:47.634Z,46.68
2018-08-31T08:03:45.967Z,46.21
2018-08-31T08:06:43.994Z,46.74
2018-08-31T08:09:42.490Z,46.57
2018-08-31T08:12:41.721Z,46.79
2018-08-31T08:15:40.093Z,46.67
2018-08-31T08:18:38.348Z,46.68
2018-08-31T08:21:36.686Z,46.22
2018-08-31T08:24:34.811Z,46.40
2018-08-31T08:27:32.764Z,46.80
2018-08-31T08:30:30.944Z,46.35
2018-08-31T08:33:29.147Z,46.22
2018-08-31T08:36:27.206Z,46.47
2018-08-31T08:39:25.057Z,46.60
2018-08-31T08:42:23.264Z,46.51
2018-08-31T08:45:21.320Z,46.74
2018-08-31T08:48:19.778Z,46.75
2018-08-31T08:51:17.657Z,46.82
2018-08-31T08:54:15.973Z,46.26
2018-08-31T08:57:14.925Z,46.58
2018-08-31T09:00:13.273Z,46.22
2018-08-31T09:03:11.330Z,46.41
2018-08-31T09:06:09.469Z,46.20
2018-08-31T09:09:07.481Z,46.71
2018-08-31T09:12:05.953Z,46.78
2018-08-31T09:15:03.939Z,46.15
2018-08-31T09:18:02.097Z,46.27
2018-08-31T09:21:00.092Z,46.30
2018-08-31T09:23:58.450Z,46.22
2018-08-31T09:26:56.783Z,46.62
2018-08-31T09:29:55.500Z,46.85
2018-08-31T09:32:53.789Z,46.36
2018-08-31T09:35:52.026Z,46.76
2018-08-31T09:38:51.089Z,46.84
2018-08-31T09:41:49.477Z,46.31
2018-08-31T09:44:47.610Z,46.29
2018-08-31T09:47:45.690Z,46.46
2018-08-31T09:50:44.786Z,46.58
2018-08-31T09:53:43.112Z,46.17
2018-08-31T09:56:41.155Z,46.27
2018-08-31T09:59:39.571Z,46.85
2018-08-31T10:02:43.464Z,46.21
2018-08-31T10:05:41.565Z,46.33
2018-08-31T10:08:39.534Z,46.43
2018-08-31T10:11:37.919Z,46.62
2018-08-31T10:14:35.876Z,46.29
2018-08-31T10:17:34.350Z,46.69
2018-08-31T10:20:32.544Z,46.82
2018-08-31T10:23:30.727Z,46.77
2018-08-31T10:26:28.887Z,46.92
2018-08-31T10:29:27.031Z,46.79
2018-08-31T10:32:25.041Z,46.81
2018-08-31T10:35:23.324Z,46.84
2018-08-31T10:38:21.325Z,46.34
2018-08-31T10:41:21.766Z,46.28
2018-08-31T10:44:19.995Z,46.96
2018-08-31T10:47:18.129Z,46.66
2018-08-31T10:50:17.072Z,46.97
2018-08-31T10:53:15.122Z,46.30
2018-08-31T10:56:14.186Z,46.95
2018-08-31T10:59:12.291Z,46.87
2018-08-31T11:02:10.273Z,46.86
2018-08-31T11:05:08.371Z,46.38
2018-08-31T11:08:06.263Z,46.85
2018-08-31T11:11:04.321Z,46.74
2018-08-31T11:14:03.223Z,46.35
2018-08-31T11:17:01.656Z,46.63
2018-08-31T11:20:00.326Z,46.87
2018-08-31T11:22:58.501Z,46.36
2018-08-31T11:25:56.364Z,46.77
2018-08-31T11:28:54.670Z,46.28
2018-08-31T11:31:52.630Z,46.94
2018-08-31T11:34:50.863Z,46.29
2018-08-31T11:37:48.849Z,46.17
2018-08-31T11:40:47.138Z,46.31
2018-08-31T11:43:50.357Z,46.22
2018-08-31T11:46:48.570Z,46.49
2018-08-31T11:49:46.941Z,46.79
2018-08-31T11:52:45.358Z,46.67
2018-08-31T11:55:44.661Z,46.75
2018-08-31T11:58:42.833Z,46.75
2018-08-31T12:01:49.269Z,46.69
2018-08-31T12:04:47.460Z,46.13
2018-08-31T12:07:45.695Z,46.59
2018-08-31T12:10:43.789Z,46.40
2018-08-31T12:13:41.589Z,46.58
2018-08-31T12:16:39.887Z,46.16
2018-08-31T12:19:37.733Z,46.56
2018-08-31T12:22:35.854Z,46.70
2018-08-31T12:25:33.860Z,46.07
2018-08-31T12:28:33.102Z,46.66
2018-08-31T12:31:31.162Z,46.06
2018-08-31T12:34:30.282Z,46.06
2018-08-31T12:37:29.128Z,46.56
2018-08-31T12:40:28.323Z,46.61
2018-08-31T12:43:26.318Z,46.61
2018-08-31T12:46:24.680Z,46.19
2018-08-31T12:49:22.442Z,46.59
2018-08-31T12:52:20.580Z,46.38
2018-08-31T12:55:18.329Z,46.50
2018-08-31T12:58:16.666Z,46.57
2018-08-31T13:01:14.470Z,46.17
2018-08-31T13:04:12.977Z,46.22
2018-08-31T13:07:11.022Z,46.68
2018-08-31T13:10:09.064Z,46.26
2018-08-31T13:13:07.179Z,46.34
2018-08-31T13:16:06.560Z,46.17
2018-08-31T13:19:05.272Z,46.54
2018-08-31T13:22:03.395Z,46.47
2018-08-31T13:25:01.451Z,46.81
2018-08-31T13:27:59.574Z,46.33
2018-08-31T13:30:58.200Z,46.76
2018-08-31T13:33:57.282Z,46.75
2018-08-31T13:37:10.641Z,46.12
2018-08-31T13:40:08.940Z,46.71
2018-08-31T13:43:07.857Z,46.10
2018-08-31T13:46:07.400Z,46.73
2018-08-31T13:49:05.393Z,46.11
2018-08-31T13:52:03.402Z,46.38
2018-08-31T13:55:02.393Z,46.68
2018-08-31T13:58:00.626Z,46.08
2018-08-31T14:00:58.720Z,46.71
2018-08-31T14:03:57.847Z,46.66
2018-08-31T14:06:56.989Z,46.30
2018-08-31T14:09:55.102Z,46.59
2018-08-31T14:12:54.684Z,46.09
2018-08-31T14:15:54.334Z,46.47
2018-08-31T14:18:52.997Z,46.54
2018-08-31T14:21:51.118Z,45.93
2018-08-31T14:24:49.380Z,45.92
2018-08-31T14:27:47.300Z,45.94
2018-08-31T14:30:45.496Z,46.47
2018-08-31T14:33:44.555Z,46.10
2018-08-31T14:36:42.565Z,46.02
2018-08-31T14:39:41.490Z,45.93
2018-08-31T14:42:39.708Z,45.88
2018-08-31T14:45:38.735Z,46.44
2018-08-31T14:48:36.783Z,45.75
2018-08-31T14:51:34.886Z,46.36
2018-08-31T14:54:33.738Z,45.94
2018-08-31T14:57:31.926Z,46.36
2018-08-31T15:00:30.140Z,45.80
2018-08-31T15:03:28.094Z,46.31
2018-08-31T15:06:27.081Z,45.91
2018-08-31T15:09:24.966Z,45.88
2018-08-31T15:12:23.066Z,46.39
2018-08-31T15:15:22.166Z,46.39
2018-08-31T15:18:21.295Z,45.79
2018-08-31T15:21:19.416Z,45.91
2018-08-31T15:24:18.136Z,45.91
2018-08-31T15:27:16.357Z,46.46
2018-08-31T15:30:14.736Z,46.33
2018-08-31T15:33:12.697Z,46.51
2018-08-31T15:36:10.914Z,46.42
2018-08-31T15:39:08.976Z,45.79
2018-08-31T15:42:07.218Z,46.45
2018-08-31T15:45:05.276Z,45.85
2018-08-31T15:48:04.362Z,45.95
2018-08-31T15:51:02.235Z,45.93
2018-08-31T15:54:00.488Z,46.48
2018-08-31T15:56:59.147Z,46.00
2018-08-31T15:59:57.060Z,45.94
2018-08-31T16:02:55.055Z,46.47
2018-08-31T16:05:53.088Z,46.47
2018-08-31T16:08:51.051Z,46.44
2018-08-31T16:11:50.121Z,45.88
2018-08-31T16:14:48.238Z,46.52
2018-08-31T16:17:47.310Z,46.50
2018-08-31T16:20:46.231Z,46.18
2018-08-31T16:23:44.174Z,45.92
2018-08-31T16:26:42.224Z,46.65
2018-08-31T16:29:43.284Z,46.13
2018-08-31T16:32:41.362Z,47.10
2018-08-31T16:35:39.721Z,47.03
2018-08-31T16:38:37.681Z,47.35
2018-08-31T16:41:35.764Z,47.33
2018-08-31T16:44:33.553Z,47.39
2018-08-31T16:47:32.911Z,47.54
2018-08-31T16:50:30.679Z,47.25
2018-08-31T16:53:30.205Z,47.28
2018-08-31T16:56:29.976Z,47.22
2018-08-31T16:59:27.816Z,47.28
2018-08-31T17:02:25.853Z,47.98
2018-08-31T17:05:24.128Z,47.50
2018-08-31T17:08:22.190Z,47.54
2018-08-31T17:11:20.233Z,47.70
2018-08-31T17:14:19.281Z,47.87
2018-08-31T17:17:17.552Z,47.38
2018-08-31T17:20:16.665Z,47.37
2018-08-31T17:23:15.649Z,47.58
2018-08-31T17:26:14.544Z,47.68
2018-08-31T17:29:18.754Z,47.61
2018-08-31T17:32:22.938Z,47.50
2018-08-31T17:35:26.912Z,47.30
2018-08-31T17:38:26.211Z,47.20
2018-08-31T17:41:24.054Z,47.22
2018-08-31T17:44:23.158Z,47.58
2018-08-31T17:47:23.519Z,47.57
2018-08-31T17:50:23.549Z,47.08
2018-08-31T17:53:22.358Z,47.65
2018-08-31T17:56:21.586Z,47.57
2018-08-31T17:59:21.789Z,47.63
2018-08-31T18:02:21.364Z,47.58
2018-08-31T18:05:20.876Z,47.39
2018-08-31T18:08:19.272Z,47.44
2018-08-31T18:11:18.661Z,47.03
2018-08-31T18:14:16.853Z,47.39
2018-08-31T18:17:15.952Z,47.44
2018-08-31T18:20:15.049Z,46.92
2018-08-31T18:23:14.335Z,47.02
2018-08-31T18:26:13.516Z,47.36
2018-08-31T18:29:11.696Z,46.87
2018-08-31T18:32:11.446Z,46.79
2018-08-31T18:35:10.755Z,47.15
2018-08-31T18:38:09.953Z,46.95
2018-08-31T18:41:09.162Z,47.44
2018-08-31T18:44:08.365Z,47.37
2018-08-31T18:47:06.955Z,47.00
2018-08-31T18:50:06.769Z,47.32
2018-08-31T18:53:05.870Z,47.42
2018-08-31T18:56:04.974Z,47.40
2018-08-31T18:59:03.182Z,47.37
2018-08-31T19:02:02.279Z,47.09
2018-08-31T19:05:01.584Z,47.31
2018-08-31T19:08:01.058Z,47.23
2018-08-31T19:11:00.440Z,47.34
2018-08-31T19:13:59.827Z,47.07
2018-08-31T19:16:59.484Z,46.75
2018-08-31T19:19:58.492Z,47.27
2018-08-31T19:22:56.856Z,47.31
2018-08-31T19:25:55.866Z,46.72
2018-08-31T19:28:54.112Z,47.38
2018-08-31T19:31:52.112Z,46.80
2018-08-31T19:34:51.214Z,47.17
2018-08-31T19:37:50.420Z,46.75
2018-08-31T19:40:48.425Z,47.10
2018-08-31T19:43:47.498Z,46.83
2018-08-31T19:46:46.767Z,46.51
2018-08-31T19:49:45.500Z,46.57
2018-08-31T19:52:43.862Z,47.22
2018-08-31T19:55:42.750Z,47.16
2018-08-31T19:58:40.941Z,47.11
2018-08-31T20:01:40.040Z,46.92
2018-08-31T20:04:39.072Z,46.75
2018-08-31T20:07:37.126Z,47.13
2018-08-31T20:10:35.184Z,46.62
2018-08-31T20:13:33.570Z,46.90
2018-08-31T20:16:32.582Z,46.60
2018-08-31T20:19:30.973Z,46.63
2018-08-31T20:22:33.588Z,47.21
2018-08-31T20:25:31.832Z,47.09
2018-08-31T20:28:33.385Z,46.72
2018-08-31T20:31:31.465Z,47.11
2018-08-31T20:34:30.877Z,47.16
2018-08-31T20:37:29.767Z,47.13
2018-08-31T20:40:28.795Z,47.09
2018-08-31T20:43:26.741Z,46.96
2018-08-31T20:46:26.130Z,47.24
2018-08-31T20:49:25.754Z,46.61
2018-08-31T20:52:25.088Z,47.16
2018-08-31T20:55:24.373Z,46.87
2018-08-31T20:58:23.808Z,46.47
2018-08-31T21:01:21.952Z,46.47
2018-08-31T21:04:21.065Z,46.99
2018-08-31T21:07:21.286Z,46.61
2018-08-31T21:10:19.537Z,47.06
2018-08-31T21:13:18.631Z,46.63
2018-08-31T21:16:17.909Z,47.27
2018-08-31T21:19:15.985Z,47.17
2018-08-31T21:22:15.307Z,47.27
2018-08-31T21:25:14.134Z,47.23
2018-08-31T21:28:12.203Z,47.24
2018-08-31T21:31:11.303Z,46.69
2018-08-31T21:34:09.529Z,47.38
2018-08-31T21:37:07.534Z,47.44
2018-08-31T21:40:05.796Z,46.90
2018-08-31T21:43:03.551Z,46.90
2018-08-31T21:46:01.694Z,47.15
2018-08-31T21:48:59.619Z,47.46
2018-08-31T21:51:57.748Z,47.44
2018-08-31T21:54:55.731Z,47.00
2018-08-31T21:57:55.055Z,47.02
2018-08-31T22:00:53.414Z,46.98
2018-08-31T22:03:52.717Z,47.57
2018-08-31T22:06:51.913Z,47.21
2018-08-31T22:09:50.562Z,47.61
2018-08-31T22:12:50.425Z,47.74
2018-08-31T22:15:48.770Z,47.85
2018-08-31T22:18:47.502Z,47.43
2018-08-31T22:21:45.843Z,47.84
2018-08-31T22:24:43.738Z,47.42
2018-08-31T22:27:41.828Z,48.01
2018-08-31T22:30:39.995Z,47.34
2018-08-31T22:33:39.298Z,47.47
2018-08-31T22:36:39.423Z,47.57
2018-08-31T22:39:37.774Z,47.61
2018-08-31T22:42:36.001Z,47.67
2018-08-31T22:45:33.971Z,47.58
2018-08-31T22:48:32.602Z,47.67
2018-08-31T22:51:31.863Z,47.82
2018-08-31T22:54:31.783Z,48.11
2018-08-31T22:57:31.498Z,48.14
2018-08-31T23:00:30.568Z,48.34
2018-08-31T23:03:28.989Z,47.66
2018-08-31T23:06:28.287Z,48.25
2018-08-31T23:09:27.374Z,47.58
2018-08-31T23:12:25.360Z,47.95
2018-08-31T23:15:24.484Z,47.67
2018-08-31T23:18:23.424Z,48.03
2018-08-31T23:21:23.604Z,47.75
2018-08-31T23:24:22.841Z,48.20
2018-08-31T23:27:23.220Z,48.30
2018-08-31T23:30:23.451Z,48.30
2018-08-31T23:33:22.548Z,47.70
2018-08-31T23:36:20.628Z,47.83
2018-08-31T23:39:19.819Z,48.01
2018-08-31T23:42:19.443Z,48.17
2018-08-31T23:45:19.051Z,47.63
2018-08-31T23:48:17.935Z,47.79
2018-08-31T23:51:17.656Z,48.12
2018-08-31T23:54:16.858Z,47.73
2018-08-31T23:57:15.347Z,47.64
